sensor_id;sensor_type;location;lat;lon;timestamp;pressure;altitude;pressure_sealevel;temperature;humidity
29385;BME280;16367;48.736;9.218;2023-12-20T00:01:25;-23348.41;;;5.69;100.00
29385;BME280;16367;48.736;9.218;2023-12-20T00:03:26;-23348.09;;;5.68;100.00
29385;BME280;16367;48.736;9.218;2023-12-20T00:05:29;-23346.81;;;5.64;100.00
29385;BME280;16367;48.736;9.218;2023-12-20T00:11:43;-23347.44;;;5.66;100.00
29385;BME280;16367;48.736;9.218;2023-12-20T00:13:45;-23348.72;;;5.70;100.00
29385;BME280;16367;48.736;9.218;2023-12-20T00:15:49;-23350.78;;;5.76;100.00
29385;BME280;16367;48.736;9.218;2023-12-20T00:17:51;-23350.63;;;5.76;100.00
29385;BME280;16367;48.736;9.218;2023-12-20T00:19:52;-23350.47;;;5.75;100.00
29385;BME280;16367;48.736;9.218;2023-12-20T00:21:54;-23351.59;;;5.79;100.00
29385;BME280;16367;48.736;9.218;2023-12-20T00:23:55;-23350.63;;;5.76;100.00
29385;BME280;16367;48.736;9.218;2023-12-20T00:25:56;-23351.25;;;5.78;100.00
29385;BME280;16367;48.736;9.218;2023-12-20T00:27:58;-23352.53;;;5.82;100.00
29385;BME280;16367;48.736;9.218;2023-12-20T00:34:12;-23351.59;;;5.79;100.00
29385;BME280;16367;48.736;9.218;2023-12-20T00:36:14;-23350.31;;;5.75;100.00
29385;BME280;16367;48.736;9.218;2023-12-20T00:38:15;-23350.78;;;5.76;100.00
29385;BME280;16367;48.736;9.218;2023-12-20T00:40:17;-23350.00;;;5.74;100.00
29385;BME280;16367;48.736;9.218;2023-12-20T00:42:18;-23351.59;;;5.79;100.00
29385;BME280;16367;48.736;9.218;2023-12-20T00:44:20;-23350.63;;;5.76;100.00
29385;BME280;16367;48.736;9.218;2023-12-20T00:46:21;-23349.03;;;5.71;100.00
29385;BME280;16367;48.736;9.218;2023-12-20T00:48:22;-23347.75;;;5.67;100.00
29385;BME280;16367;48.736;9.218;2023-12-20T00:50:24;-23345.69;;;5.60;100.00
29385;BME280;16367;48.736;9.218;2023-12-20T00:54:43;-23345.69;;;5.60;100.00
29385;BME280;16367;48.736;9.218;2023-12-20T00:56:45;-23344.91;;;5.58;100.00
29385;BME280;16367;48.736;9.218;2023-12-20T00:58:46;-23344.59;;;5.57;100.00
29385;BME280;16367;48.736;9.218;2023-12-20T01:00:48;-23344.41;;;5.56;100.00
29385;BME280;16367;48.736;9.218;2023-12-20T01:02:49;-23341.88;;;5.48;100.00
29385;BME280;16367;48.736;9.218;2023-12-20T01:04:52;-23343.63;;;5.54;100.00
29385;BME280;16367;48.736;9.218;2023-12-20T01:06:53;-23343.00;;;5.52;100.00
29385;BME280;16367;48.736;9.218;2023-12-20T01:08:55;-23342.19;;;5.49;100.00
29385;BME280;16367;48.736;9.218;2023-12-20T01:10:57;-23339.66;;;5.41;100.00
29385;BME280;16367;48.736;9.218;2023-12-20T01:19:13;-23337.75;;;5.35;100.00
29385;BME280;16367;48.736;9.218;2023-12-20T01:21:14;-23338.69;;;5.38;100.00
29385;BME280;16367;48.736;9.218;2023-12-20T01:23:16;-23339.66;;;5.41;100.00
29385;BME280;16367;48.736;9.218;2023-12-20T01:25:17;-23337.75;;;5.35;100.00
29385;BME280;16367;48.736;9.218;2023-12-20T01:27:18;-23337.56;;;5.35;100.00
29385;BME280;16367;48.736;9.218;2023-12-20T01:29:20;-23336.78;;;5.32;100.00
29385;BME280;16367;48.736;9.218;2023-12-20T01:31:21;-23335.50;;;5.28;100.00
29385;BME280;16367;48.736;9.218;2023-12-20T01:33:23;-23334.56;;;5.25;100.00
29385;BME280;16367;48.736;9.218;2023-12-20T01:35:25;-23334.41;;;5.24;100.00
29385;BME280;16367;48.736;9.218;2023-12-20T01:40:54;-23332.81;;;5.19;100.00
29385;BME280;16367;48.736;9.218;2023-12-20T01:42:59;-23332.00;;;5.17;100.00
29385;BME280;16367;48.736;9.218;2023-12-20T01:45:01;-23332.16;;;5.17;100.00
29385;BME280;16367;48.736;9.218;2023-12-20T01:47:03;-23333.13;;;5.20;100.00
29385;BME280;16367;48.736;9.218;2023-12-20T01:49:05;-23331.69;;;5.16;100.00
29385;BME280;16367;48.736;9.218;2023-12-20T01:51:06;-23333.28;;;5.21;100.00
29385;BME280;16367;48.736;9.218;2023-12-20T01:53:08;-23333.44;;;5.21;100.00
29385;BME280;16367;48.736;9.218;2023-12-20T01:55:11;-23332.47;;;5.18;100.00
29385;BME280;16367;48.736;9.218;2023-12-20T01:57:16;-23334.56;;;5.25;100.00
29385;BME280;16367;48.736;9.218;2023-12-20T02:01:35;-23329.94;;;5.10;100.00
29385;BME280;16367;48.736;9.218;2023-12-20T02:03:37;-23329.94;;;5.10;100.00
29385;BME280;16367;48.736;9.218;2023-12-20T02:05:39;-23330.25;;;5.11;100.00
29385;BME280;16367;48.736;9.218;2023-12-20T02:07:41;-23330.88;;;5.13;100.00
29385;BME280;16367;48.736;9.218;2023-12-20T02:09:42;-23331.22;;;5.14;100.00
29385;BME280;16367;48.736;9.218;2023-12-20T02:11:44;-23331.38;;;5.15;100.00
29385;BME280;16367;48.736;9.218;2023-12-20T02:13:45;-23328.50;;;5.06;100.00
29385;BME280;16367;48.736;9.218;2023-12-20T02:15:47;-23331.53;;;5.15;100.00
29385;BME280;16367;48.736;9.218;2023-12-20T02:17:49;-23330.25;;;5.11;100.00
29385;BME280;16367;48.736;9.218;2023-12-20T02:22:15;-23329.31;;;5.08;100.00
29385;BME280;16367;48.736;9.218;2023-12-20T02:24:17;-23329.16;;;5.08;100.00
29385;BME280;16367;48.736;9.218;2023-12-20T02:26:18;-23330.56;;;5.12;100.00
29385;BME280;16367;48.736;9.218;2023-12-20T02:28:20;-23334.72;;;5.25;100.00
29385;BME280;16367;48.736;9.218;2023-12-20T02:30:22;-23333.75;;;5.22;100.00
29385;BME280;16367;48.736;9.218;2023-12-20T02:32:24;-23330.56;;;5.12;100.00
29385;BME280;16367;48.736;9.218;2023-12-20T02:34:26;-23330.25;;;5.11;100.00
29385;BME280;16367;48.736;9.218;2023-12-20T02:36:28;-23332.16;;;5.17;100.00
29385;BME280;16367;48.736;9.218;2023-12-20T02:38:30;-23331.53;;;5.15;100.00
29385;BME280;16367;48.736;9.218;2023-12-20T02:43:12;-23332.16;;;5.17;100.00
29385;BME280;16367;48.736;9.218;2023-12-20T02:45:13;-23331.06;;;5.14;100.00
29385;BME280;16367;48.736;9.218;2023-12-20T02:47:15;-23330.25;;;5.11;100.00
29385;BME280;16367;48.736;9.218;2023-12-20T02:49:16;-23329.94;;;5.10;100.00
29385;BME280;16367;48.736;9.218;2023-12-20T02:51:18;-23330.88;;;5.13;100.00
29385;BME280;16367;48.736;9.218;2023-12-20T02:53:19;-23333.44;;;5.21;100.00
29385;BME280;16367;48.736;9.218;2023-12-20T02:55:20;-23330.25;;;5.11;100.00
29385;BME280;16367;48.736;9.218;2023-12-20T02:57:22;-23332.16;;;5.17;100.00
29385;BME280;16367;48.736;9.218;2023-12-20T02:59:24;-23334.25;;;5.24;100.00
29385;BME280;16367;48.736;9.218;2023-12-20T03:05:38;-23335.97;;;5.29;100.00
29385;BME280;16367;48.736;9.218;2023-12-20T03:07:40;-23332.81;;;5.19;100.00
29385;BME280;16367;48.736;9.218;2023-12-20T03:09:41;-23329.63;;;5.09;100.00
29385;BME280;16367;48.736;9.218;2023-12-20T03:12:03;-23329.16;;;5.08;100.00
29385;BME280;16367;48.736;9.218;2023-12-20T03:14:04;-23331.22;;;5.14;100.00
29385;BME280;16367;48.736;9.218;2023-12-20T03:16:08;-23332.00;;;5.17;100.00
29385;BME280;16367;48.736;9.218;2023-12-20T03:18:09;-23334.25;;;5.24;100.00
29385;BME280;16367;48.736;9.218;2023-12-20T03:20:11;-23331.06;;;5.14;100.00
29385;BME280;16367;48.736;9.218;2023-12-20T03:22:13;-23333.28;;;5.21;100.00
29385;BME280;16367;48.736;9.218;2023-12-20T03:28:29;-23332.00;;;5.17;100.00
29385;BME280;16367;48.736;9.218;2023-12-20T03:30:31;-23330.09;;;5.11;100.00
29385;BME280;16367;48.736;9.218;2023-12-20T03:32:32;-23330.56;;;5.12;100.00
29385;BME280;16367;48.736;9.218;2023-12-20T03:34:37;-23328.66;;;5.06;100.00
29385;BME280;16367;48.736;9.218;2023-12-20T03:36:38;-23332.47;;;5.18;100.00
29385;BME280;16367;48.736;9.218;2023-12-20T03:38:40;-23331.22;;;5.14;100.00
29385;BME280;16367;48.736;9.218;2023-12-20T03:40:41;-23332.66;;;5.19;100.00
29385;BME280;16367;48.736;9.218;2023-12-20T03:42:42;-23331.53;;;5.15;100.00
29385;BME280;16367;48.736;9.218;2023-12-20T03:44:44;-23331.53;;;5.15;100.00
29385;BME280;16367;48.736;9.218;2023-12-20T03:50:59;-23330.09;;;5.11;100.00
29385;BME280;16367;48.736;9.218;2023-12-20T03:53:01;-23330.56;;;5.12;100.00
29385;BME280;16367;48.736;9.218;2023-12-20T03:55:02;-23330.41;;;5.12;100.00
29385;BME280;16367;48.736;9.218;2023-12-20T03:57:04;-23327.72;;;5.03;100.00
29385;BME280;16367;48.736;9.218;2023-12-20T03:59:05;-23329.31;;;5.08;100.00
29385;BME280;16367;48.736;9.218;2023-12-20T04:01:09;-23329.31;;;5.08;100.00
29385;BME280;16367;48.736;9.218;2023-12-20T04:03:11;-23329.31;;;5.08;100.00
29385;BME280;16367;48.736;9.218;2023-12-20T04:05:14;-23327.06;;;5.01;100.00
29385;BME280;16367;48.736;9.218;2023-12-20T04:07:16;-23324.69;;;4.94;100.00
29385;BME280;16367;48.736;9.218;2023-12-20T04:13:32;-23325.31;;;4.96;100.00
29385;BME280;16367;48.736;9.218;2023-12-20T04:15:33;-23325.81;;;4.97;100.00
29385;BME280;16367;48.736;9.218;2023-12-20T04:17:35;-23323.91;;;4.91;100.00
29385;BME280;16367;48.736;9.218;2023-12-20T04:19:36;-23326.13;;;4.98;100.00
29385;BME280;16367;48.736;9.218;2023-12-20T04:21:38;-23325.00;;;4.95;100.00
29385;BME280;16367;48.736;9.218;2023-12-20T04:23:39;-23323.56;;;4.90;100.00
29385;BME280;16367;48.736;9.218;2023-12-20T04:25:41;-23323.09;;;4.89;100.00
29385;BME280;16367;48.736;9.218;2023-12-20T04:27:42;-23322.31;;;4.86;100.00
29385;BME280;16367;48.736;9.218;2023-12-20T04:29:44;-23321.66;;;4.84;100.00
29385;BME280;16367;48.736;9.218;2023-12-20T04:36:00;-23321.66;;;4.84;100.00
29385;BME280;16367;48.736;9.218;2023-12-20T04:38:01;-23321.50;;;4.84;100.00
29385;BME280;16367;48.736;9.218;2023-12-20T04:40:03;-23321.66;;;4.84;100.00
29385;BME280;16367;48.736;9.218;2023-12-20T04:42:06;-23317.53;;;4.71;100.00
29385;BME280;16367;48.736;9.218;2023-12-20T04:44:07;-23317.84;;;4.72;100.00
29385;BME280;16367;48.736;9.218;2023-12-20T04:46:09;-23321.03;;;4.82;100.00
29385;BME280;16367;48.736;9.218;2023-12-20T04:48:10;-23318.16;;;4.73;100.00
29385;BME280;16367;48.736;9.218;2023-12-20T04:50:12;-23318.78;;;4.75;100.00
29385;BME280;16367;48.736;9.218;2023-12-20T04:52:15;-23318.78;;;4.75;100.00
29385;BME280;16367;48.736;9.218;2023-12-20T04:56:41;-23316.41;;;4.68;100.00
29385;BME280;16367;48.736;9.218;2023-12-20T04:58:43;-23316.25;;;4.67;100.00
29385;BME280;16367;48.736;9.218;2023-12-20T05:00:44;-23317.84;;;4.72;100.00
29385;BME280;16367;48.736;9.218;2023-12-20T05:02:45;-23316.72;;;4.69;100.00
29385;BME280;16367;48.736;9.218;2023-12-20T05:04:47;-23318.00;;;4.73;100.00
29385;BME280;16367;48.736;9.218;2023-12-20T05:06:48;-23314.50;;;4.62;100.00
29385;BME280;16367;48.736;9.218;2023-12-20T05:08:50;-23316.09;;;4.67;100.00
29385;BME280;16367;48.736;9.218;2023-12-20T05:10:54;-23318.16;;;4.73;100.00
29385;BME280;16367;48.736;9.218;2023-12-20T05:12:56;-23315.78;;;4.66;100.00
29385;BME280;16367;48.736;9.218;2023-12-20T05:21:07;-23312.09;;;4.54;100.00
29385;BME280;16367;48.736;9.218;2023-12-20T05:23:08;-23311.16;;;4.51;100.00
29385;BME280;16367;48.736;9.218;2023-12-20T05:25:09;-23313.53;;;4.59;100.00
29385;BME280;16367;48.736;9.218;2023-12-20T05:27:11;-23312.09;;;4.54;100.00
29385;BME280;16367;48.736;9.218;2023-12-20T05:29:12;-23314.81;;;4.63;100.00
29385;BME280;16367;48.736;9.218;2023-12-20T05:31:13;-23313.69;;;4.59;100.00
29385;BME280;16367;48.736;9.218;2023-12-20T05:33:15;-23310.19;;;4.48;100.00
29385;BME280;16367;48.736;9.218;2023-12-20T05:35:16;-23311.47;;;4.52;100.00
29385;BME280;16367;48.736;9.218;2023-12-20T05:37:19;-23312.75;;;4.56;100.00
29385;BME280;16367;48.736;9.218;2023-12-20T05:42:34;-23310.50;;;4.49;100.00
29385;BME280;16367;48.736;9.218;2023-12-20T05:44:35;-23313.38;;;4.58;100.00
29385;BME280;16367;48.736;9.218;2023-12-20T05:46:37;-23313.38;;;4.58;100.00
29385;BME280;16367;48.736;9.218;2023-12-20T05:48:38;-23311.94;;;4.53;100.00
29385;BME280;16367;48.736;9.218;2023-12-20T05:50:39;-23311.16;;;4.51;100.00
29385;BME280;16367;48.736;9.218;2023-12-20T05:52:40;-23314.03;;;4.60;100.00
29385;BME280;16367;48.736;9.218;2023-12-20T05:54:42;-23311.78;;;4.53;100.00
29385;BME280;16367;48.736;9.218;2023-12-20T05:56:43;-23312.09;;;4.54;100.00
29385;BME280;16367;48.736;9.218;2023-12-20T05:58:45;-23313.22;;;4.58;100.00
29385;BME280;16367;48.736;9.218;2023-12-20T06:03:30;-23308.91;;;4.44;100.00
29385;BME280;16367;48.736;9.218;2023-12-20T06:05:31;-23309.88;;;4.47;100.00
29385;BME280;16367;48.736;9.218;2023-12-20T06:07:33;-23310.19;;;4.48;100.00
29385;BME280;16367;48.736;9.218;2023-12-20T06:09:34;-23310.19;;;4.48;100.00
29385;BME280;16367;48.736;9.218;2023-12-20T06:11:37;-23312.44;;;4.55;100.00
29385;BME280;16367;48.736;9.218;2023-12-20T06:13:38;-23308.59;;;4.43;100.00
29385;BME280;16367;48.736;9.218;2023-12-20T06:15:40;-23309.88;;;4.47;100.00
29385;BME280;16367;48.736;9.218;2023-12-20T06:17:41;-23311.00;;;4.50;100.00
29385;BME280;16367;48.736;9.218;2023-12-20T06:19:43;-23310.50;;;4.49;100.00
29385;BME280;16367;48.736;9.218;2023-12-20T06:25:12;-23308.59;;;4.43;100.00
29385;BME280;16367;48.736;9.218;2023-12-20T06:27:13;-23309.25;;;4.45;100.00
29385;BME280;16367;48.736;9.218;2023-12-20T06:29:15;-23309.72;;;4.46;100.00
29385;BME280;16367;48.736;9.218;2023-12-20T06:31:16;-23309.88;;;4.47;100.00
29385;BME280;16367;48.736;9.218;2023-12-20T06:33:17;-23309.56;;;4.46;100.00
29385;BME280;16367;48.736;9.218;2023-12-20T06:35:20;-23310.34;;;4.48;100.00
29385;BME280;16367;48.736;9.218;2023-12-20T06:37:22;-23309.25;;;4.45;100.00
29385;BME280;16367;48.736;9.218;2023-12-20T06:39:23;-23310.19;;;4.48;100.00
29385;BME280;16367;48.736;9.218;2023-12-20T06:41:26;-23311.47;;;4.52;100.00
29385;BME280;16367;48.736;9.218;2023-12-20T06:45:52;-23310.50;;;4.49;100.00
29385;BME280;16367;48.736;9.218;2023-12-20T06:47:53;-23309.25;;;4.45;100.00
29385;BME280;16367;48.736;9.218;2023-12-20T06:49:55;-23310.19;;;4.48;100.00
29385;BME280;16367;48.736;9.218;2023-12-20T06:51:57;-23306.84;;;4.37;100.00
29385;BME280;16367;48.736;9.218;2023-12-20T06:53:58;-23309.72;;;4.46;100.00
29385;BME280;16367;48.736;9.218;2023-12-20T06:56:00;-23307.97;;;4.41;100.00
29385;BME280;16367;48.736;9.218;2023-12-20T06:58:02;-23305.91;;;4.34;100.00
29385;BME280;16367;48.736;9.218;2023-12-20T07:00:04;-23307.31;;;4.39;100.00
29385;BME280;16367;48.736;9.218;2023-12-20T07:02:08;-23308.59;;;4.43;100.00
29385;BME280;16367;48.736;9.218;2023-12-20T07:06:49;-23309.25;;;4.45;100.00
29385;BME280;16367;48.736;9.218;2023-12-20T07:08:52;-23308.28;;;4.42;100.00
29385;BME280;16367;48.736;9.218;2023-12-20T07:10:53;-23308.13;;;4.41;100.00
29385;BME280;16367;48.736;9.218;2023-12-20T07:12:55;-23307.97;;;4.41;100.00
29385;BME280;16367;48.736;9.218;2023-12-20T07:14:56;-23310.84;;;4.50;100.00
29385;BME280;16367;48.736;9.218;2023-12-20T07:16:57;-23311.63;;;4.52;100.00
29385;BME280;16367;48.736;9.218;2023-12-20T07:18:59;-23308.75;;;4.43;100.00
29385;BME280;16367;48.736;9.218;2023-12-20T07:21:00;-23311.94;;;4.53;100.00
29385;BME280;16367;48.736;9.218;2023-12-20T07:23:02;-23312.09;;;4.54;100.00
29385;BME280;16367;48.736;9.218;2023-12-20T07:25:05;-23311.00;;;4.50;100.00
29385;BME280;16367;48.736;9.218;2023-12-20T07:29:29;-23313.06;;;4.57;100.00
29385;BME280;16367;48.736;9.218;2023-12-20T07:31:31;-23312.75;;;4.56;100.00
29385;BME280;16367;48.736;9.218;2023-12-20T07:33:33;-23317.38;;;4.71;100.00
29385;BME280;16367;48.736;9.218;2023-12-20T07:35:40;-23316.41;;;4.68;100.00
29385;BME280;16367;48.736;9.218;2023-12-20T07:37:41;-23317.03;;;4.70;100.00
29385;BME280;16367;48.736;9.218;2023-12-20T07:39:43;-23315.28;;;4.64;100.00
29385;BME280;16367;48.736;9.218;2023-12-20T07:41:45;-23319.28;;;4.77;100.00
29385;BME280;16367;48.736;9.218;2023-12-20T07:43:47;-23315.59;;;4.65;100.00
29385;BME280;16367;48.736;9.218;2023-12-20T07:50:04;-23315.94;;;4.66;100.00
29385;BME280;16367;48.736;9.218;2023-12-20T07:52:05;-23317.84;;;4.72;100.00
29385;BME280;16367;48.736;9.218;2023-12-20T07:54:09;-23319.09;;;4.76;100.00
29385;BME280;16367;48.736;9.218;2023-12-20T07:56:14;-23317.53;;;4.71;100.00
29385;BME280;16367;48.736;9.218;2023-12-20T07:58:15;-23319.75;;;4.78;100.00
29385;BME280;16367;48.736;9.218;2023-12-20T08:00:17;-23318.78;;;4.75;100.00
29385;BME280;16367;48.736;9.218;2023-12-20T08:02:19;-23314.66;;;4.62;100.00
29385;BME280;16367;48.736;9.218;2023-12-20T08:04:20;-23316.41;;;4.68;100.00
29385;BME280;16367;48.736;9.218;2023-12-20T08:06:22;-23318.97;;;4.76;100.00
29385;BME280;16367;48.736;9.218;2023-12-20T08:11:29;-23317.84;;;4.72;100.00
29385;BME280;16367;48.736;9.218;2023-12-20T08:13:30;-23317.53;;;4.71;100.00
29385;BME280;16367;48.736;9.218;2023-12-20T08:15:32;-23315.44;;;4.65;100.00
29385;BME280;16367;48.736;9.218;2023-12-20T08:17:33;-23314.66;;;4.62;100.00
29385;BME280;16367;48.736;9.218;2023-12-20T08:19:35;-23315.78;;;4.66;100.00
29385;BME280;16367;48.736;9.218;2023-12-20T08:21:36;-23319.91;;;4.79;100.00
29385;BME280;16367;48.736;9.218;2023-12-20T08:23:39;-23317.38;;;4.71;100.00
29385;BME280;16367;48.736;9.218;2023-12-20T08:25:41;-23315.28;;;4.64;100.00
29385;BME280;16367;48.736;9.218;2023-12-20T08:27:43;-23315.28;;;4.64;100.00
29385;BME280;16367;48.736;9.218;2023-12-20T08:34:27;-23317.38;;;4.71;100.00
29385;BME280;16367;48.736;9.218;2023-12-20T08:36:29;-23314.50;;;4.62;100.00
29385;BME280;16367;48.736;9.218;2023-12-20T08:38:30;-23311.63;;;4.52;100.00
29385;BME280;16367;48.736;9.218;2023-12-20T08:40:31;-23313.53;;;4.59;100.00
29385;BME280;16367;48.736;9.218;2023-12-20T08:42:33;-23315.44;;;4.65;100.00
29385;BME280;16367;48.736;9.218;2023-12-20T08:44:34;-23310.84;;;4.50;100.00
29385;BME280;16367;48.736;9.218;2023-12-20T08:46:36;-23310.84;;;4.50;100.00
29385;BME280;16367;48.736;9.218;2023-12-20T08:48:37;-23309.56;;;4.46;100.00
29385;BME280;16367;48.736;9.218;2023-12-20T08:50:39;-23311.16;;;4.51;100.00
29385;BME280;16367;48.736;9.218;2023-12-20T08:58:11;-23309.25;;;4.45;100.00
29385;BME280;16367;48.736;9.218;2023-12-20T09:00:13;-23312.09;;;4.54;100.00
29385;BME280;16367;48.736;9.218;2023-12-20T09:02:14;-23304.78;;;4.31;100.00
29385;BME280;16367;48.736;9.218;2023-12-20T09:04:16;-23303.19;;;4.26;100.00
29385;BME280;16367;48.736;9.218;2023-12-20T09:06:17;-23305.91;;;4.34;100.00
29385;BME280;16367;48.736;9.218;2023-12-20T09:08:19;-23304.78;;;4.31;100.00
29385;BME280;16367;48.736;9.218;2023-12-20T09:10:20;-23306.69;;;4.37;100.00
29385;BME280;16367;48.736;9.218;2023-12-20T09:12:23;-23304.31;;;4.29;100.00
29385;BME280;16367;48.736;9.218;2023-12-20T09:14:25;-23306.53;;;4.36;100.00
29385;BME280;16367;48.736;9.218;2023-12-20T09:19:37;-23299.69;;;4.15;100.00
29385;BME280;16367;48.736;9.218;2023-12-20T09:21:39;-23314.97;;;4.63;100.00
29385;BME280;16367;48.736;9.218;2023-12-20T09:23:40;-23316.88;;;4.69;100.00
29385;BME280;16367;48.736;9.218;2023-12-20T09:25:42;-23321.97;;;4.85;100.00
29385;BME280;16367;48.736;9.218;2023-12-20T09:27:43;-23345.53;;;5.60;100.00
29385;BME280;16367;48.736;9.218;2023-12-20T09:29:45;-23347.59;;;5.66;100.00
29385;BME280;16367;48.736;9.218;2023-12-20T09:31:46;-23349.03;;;5.71;100.00
29385;BME280;16367;48.736;9.218;2023-12-20T09:33:48;-23373.84;;;6.49;100.00
29385;BME280;16367;48.736;9.218;2023-12-20T09:35:50;-23384.66;;;6.84;100.00
29385;BME280;16367;48.736;9.218;2023-12-20T09:42:06;-23405.47;;;7.49;97.13
29385;BME280;16367;48.736;9.218;2023-12-20T09:44:08;-23379.56;;;6.67;100.00
29385;BME280;16367;48.736;9.218;2023-12-20T09:46:16;-23364.94;;;6.21;100.00
29385;BME280;16367;48.736;9.218;2023-12-20T09:48:22;-23363.84;;;6.18;100.00
29385;BME280;16367;48.736;9.218;2023-12-20T09:50:23;-23361.94;;;6.12;100.00
29385;BME280;16367;48.736;9.218;2023-12-20T09:52:25;-23357.31;;;5.97;100.00
29385;BME280;16367;48.736;9.218;2023-12-20T09:54:27;-23355.72;;;5.92;100.00
29385;BME280;16367;48.736;9.218;2023-12-20T09:56:29;-23351.25;;;5.78;100.00
29385;BME280;16367;48.736;9.218;2023-12-20T09:58:31;-23347.44;;;5.66;100.00
29385;BME280;16367;48.736;9.218;2023-12-20T10:03:46;-23350.16;;;5.74;100.00
29385;BME280;16367;48.736;9.218;2023-12-20T10:05:49;-23353.66;;;5.85;100.00
29385;BME280;16367;48.736;9.218;2023-12-20T10:07:54;-23351.41;;;5.78;100.00
29385;BME280;16367;48.736;9.218;2023-12-20T10:09:55;-23348.09;;;5.68;100.00
29385;BME280;16367;48.736;9.218;2023-12-20T10:11:57;-23351.25;;;5.78;100.00
29385;BME280;16367;48.736;9.218;2023-12-20T10:13:59;-23355.41;;;5.91;100.00
29385;BME280;16367;48.736;9.218;2023-12-20T10:16:02;-23351.41;;;5.78;98.29
29385;BME280;16367;48.736;9.218;2023-12-20T10:18:04;-23350.63;;;5.76;100.00
29385;BME280;16367;48.736;9.218;2023-12-20T10:20:07;-23357.16;;;5.96;95.34
29385;BME280;16367;48.736;9.218;2023-12-20T10:27:40;-23376.22;;;6.57;94.09
29385;BME280;16367;48.736;9.218;2023-12-20T10:29:42;-23371.78;;;6.43;94.23
29385;BME280;16367;48.736;9.218;2023-12-20T10:31:43;-23379.09;;;6.66;93.65
29385;BME280;16367;48.736;9.218;2023-12-20T10:33:46;-23366.84;;;6.27;93.68
29385;BME280;16367;48.736;9.218;2023-12-20T10:35:47;-23360.50;;;6.07;94.37
29385;BME280;16367;48.736;9.218;2023-12-20T10:37:50;-23355.41;;;5.91;93.66
29385;BME280;16367;48.736;9.218;2023-12-20T10:39:53;-23348.72;;;5.70;94.74
29385;BME280;16367;48.736;9.218;2023-12-20T10:41:57;-23346.50;;;5.63;96.90
29385;BME280;16367;48.736;9.218;2023-12-20T10:44:00;-23343.94;;;5.55;96.36
29385;BME280;16367;48.736;9.218;2023-12-20T10:49:22;-23342.19;;;5.49;98.09
29385;BME280;16367;48.736;9.218;2023-12-20T10:51:24;-23346.97;;;5.64;98.24
29385;BME280;16367;48.736;9.218;2023-12-20T10:53:27;-23347.59;;;5.66;98.16
29385;BME280;16367;48.736;9.218;2023-12-20T10:55:28;-23340.44;;;5.44;98.94
29385;BME280;16367;48.736;9.218;2023-12-20T10:57:30;-23340.13;;;5.43;98.71
29385;BME280;16367;48.736;9.218;2023-12-20T10:59:33;-23338.22;;;5.37;97.72
29385;BME280;16367;48.736;9.218;2023-12-20T11:01:38;-23341.56;;;5.47;98.13
29385;BME280;16367;48.736;9.218;2023-12-20T11:03:46;-23337.41;;;5.34;100.00
29385;BME280;16367;48.736;9.218;2023-12-20T11:05:54;-23337.41;;;5.34;98.36
29385;BME280;16367;48.736;9.218;2023-12-20T11:14:14;-23334.72;;;5.25;98.42
29385;BME280;16367;48.736;9.218;2023-12-20T11:16:18;-23340.28;;;5.43;96.96
29385;BME280;16367;48.736;9.218;2023-12-20T11:18:28;-23342.66;;;5.51;98.07
29385;BME280;16367;48.736;9.218;2023-12-20T11:20:35;-23335.03;;;5.26;98.61
29385;BME280;16367;48.736;9.218;2023-12-20T11:22:37;-23338.84;;;5.39;97.75
29385;BME280;16367;48.736;9.218;2023-12-20T11:24:44;-23337.09;;;5.33;98.55
29385;BME280;16367;48.736;9.218;2023-12-20T11:26:47;-23338.69;;;5.38;98.50
29385;BME280;16367;48.736;9.218;2023-12-20T11:28:49;-23332.47;;;5.18;98.93
29385;BME280;16367;48.736;9.218;2023-12-20T11:30:52;-23330.25;;;5.11;100.00
29385;BME280;16367;48.736;9.218;2023-12-20T11:39:07;-23337.41;;;5.34;99.80
29385;BME280;16367;48.736;9.218;2023-12-20T11:41:13;-23332.00;;;5.17;97.95
29385;BME280;16367;48.736;9.218;2023-12-20T11:43:29;-23334.06;;;5.23;96.88
29385;BME280;16367;48.736;9.218;2023-12-20T11:45:31;-23340.13;;;5.43;98.78
29385;BME280;16367;48.736;9.218;2023-12-20T11:47:33;-23338.53;;;5.38;98.17
29385;BME280;16367;48.736;9.218;2023-12-20T11:49:35;-23333.44;;;5.21;97.60
29385;BME280;16367;48.736;9.218;2023-12-20T11:51:40;-23335.03;;;5.26;95.06
29385;BME280;16367;48.736;9.218;2023-12-20T11:53:42;-23334.41;;;5.24;93.91
29385;BME280;16367;48.736;9.218;2023-12-20T11:55:47;-23335.66;;;5.28;95.32
29385;BME280;16367;48.736;9.218;2023-12-20T12:01:03;-23328.66;;;5.06;94.40
29385;BME280;16367;48.736;9.218;2023-12-20T12:03:05;-23329.94;;;5.10;92.51
29385;BME280;16367;48.736;9.218;2023-12-20T12:05:07;-23331.69;;;5.16;93.52
29385;BME280;16367;48.736;9.218;2023-12-20T12:07:09;-23331.69;;;5.16;93.38
29385;BME280;16367;48.736;9.218;2023-12-20T12:09:10;-23330.41;;;5.12;93.28
29385;BME280;16367;48.736;9.218;2023-12-20T12:11:12;-23330.75;;;5.13;93.14
29385;BME280;16367;48.736;9.218;2023-12-20T12:13:13;-23335.19;;;5.27;92.04
29385;BME280;16367;48.736;9.218;2023-12-20T12:15:15;-23330.41;;;5.12;93.12
29385;BME280;16367;48.736;9.218;2023-12-20T12:17:17;-23326.44;;;4.99;93.71
29385;BME280;16367;48.736;9.218;2023-12-20T12:25:36;-23328.50;;;5.06;92.11
29385;BME280;16367;48.736;9.218;2023-12-20T12:27:43;-23330.25;;;5.11;92.96
29385;BME280;16367;48.736;9.218;2023-12-20T12:30:00;-23332.66;;;5.19;93.15
29385;BME280;16367;48.736;9.218;2023-12-20T12:32:05;-23329.16;;;5.08;90.56
29385;BME280;16367;48.736;9.218;2023-12-20T12:34:07;-23330.25;;;5.11;90.52
29385;BME280;16367;48.736;9.218;2023-12-20T12:36:10;-23327.72;;;5.03;89.69
29385;BME280;16367;48.736;9.218;2023-12-20T12:38:12;-23331.53;;;5.15;90.30
29385;BME280;16367;48.736;9.218;2023-12-20T12:40:14;-23331.84;;;5.16;90.61
29385;BME280;16367;48.736;9.218;2023-12-20T12:42:16;-23330.25;;;5.11;90.78
29385;BME280;16367;48.736;9.218;2023-12-20T12:46:31;-23334.06;;;5.23;90.63
29385;BME280;16367;48.736;9.218;2023-12-20T12:48:33;-23340.75;;;5.45;89.92
29385;BME280;16367;48.736;9.218;2023-12-20T12:50:35;-23336.78;;;5.32;88.57
29385;BME280;16367;48.736;9.218;2023-12-20T12:52:36;-23335.97;;;5.29;88.95
29385;BME280;16367;48.736;9.218;2023-12-20T12:54:38;-23334.06;;;5.23;88.71
29385;BME280;16367;48.736;9.218;2023-12-20T12:56:40;-23336.63;;;5.32;88.97